sensor_id;sensor_type;location;lat;lon;timestamp;temperature;humidity
20722;DHT22;10522;52.198;9.890;2023-03-04T00:01:11;3.40;99.90
20722;DHT22;10522;52.198;9.890;2023-03-04T00:03:37;3.40;99.90
20722;DHT22;10522;52.198;9.890;2023-03-04T00:06:02;3.50;99.90
20722;DHT22;10522;52.198;9.890;2023-03-04T00:08:28;3.50;99.90
20722;DHT22;10522;52.198;9.890;2023-03-04T00:10:54;3.50;99.90
20722;DHT22;10522;52.198;9.890;2023-03-04T00:13:19;3.50;99.90
20722;DHT22;10522;52.198;9.890;2023-03-04T00:15:47;3.60;99.90
20722;DHT22;10522;52.198;9.890;2023-03-04T00:18:13;3.60;99.90
20722;DHT22;10522;52.198;9.890;2023-03-04T00:20:38;3.60;99.90
20722;DHT22;10522;52.198;9.890;2023-03-04T00:23:04;3.60;99.90
20722;DHT22;10522;52.198;9.890;2023-03-04T00:25:30;3.60;99.90
20722;DHT22;10522;52.198;9.890;2023-03-04T00:27:55;3.60;99.90
20722;DHT22;10522;52.198;9.890;2023-03-04T00:30:22;3.60;99.90
20722;DHT22;10522;52.198;9.890;2023-03-04T00:32:48;3.60;99.90
20722;DHT22;10522;52.198;9.890;2023-03-04T00:35:14;3.60;99.90
20722;DHT22;10522;52.198;9.890;2023-03-04T00:37:40;3.60;99.90
20722;DHT22;10522;52.198;9.890;2023-03-04T00:40:06;3.60;99.90
20722;DHT22;10522;52.198;9.890;2023-03-04T00:42:31;3.60;99.90
20722;DHT22;10522;52.198;9.890;2023-03-04T00:44:57;3.60;99.90
20722;DHT22;10522;52.198;9.890;2023-03-04T00:47:23;3.60;99.90
20722;DHT22;10522;52.198;9.890;2023-03-04T00:49:48;3.70;99.90
20722;DHT22;10522;52.198;9.890;2023-03-04T00:52:14;3.70;99.90
20722;DHT22;10522;52.198;9.890;2023-03-04T00:54:40;3.70;99.90
20722;DHT22;10522;52.198;9.890;2023-03-04T00:57:05;3.70;99.90
20722;DHT22;10522;52.198;9.890;2023-03-04T00:59:31;3.70;99.90
20722;DHT22;10522;52.198;9.890;2023-03-04T01:01:57;3.70;99.90
20722;DHT22;10522;52.198;9.890;2023-03-04T01:04:22;3.70;99.90
20722;DHT22;10522;52.198;9.890;2023-03-04T01:06:48;3.70;99.90
20722;DHT22;10522;52.198;9.890;2023-03-04T01:09:14;3.70;99.90
20722;DHT22;10522;52.198;9.890;2023-03-04T01:11:39;3.70;99.90
20722;DHT22;10522;52.198;9.890;2023-03-04T01:14:05;3.70;99.90
20722;DHT22;10522;52.198;9.890;2023-03-04T01:16:30;3.70;99.90
20722;DHT22;10522;52.198;9.890;2023-03-04T01:18:56;3.70;99.90
20722;DHT22;10522;52.198;9.890;2023-03-04T01:21:22;3.80;99.90
20722;DHT22;10522;52.198;9.890;2023-03-04T01:23:48;3.70;99.90
20722;DHT22;10522;52.198;9.890;2023-03-04T01:26:13;3.80;99.90
20722;DHT22;10522;52.198;9.890;2023-03-04T01:28:39;3.80;99.90
20722;DHT22;10522;52.198;9.890;2023-03-04T01:31:05;3.80;99.90
20722;DHT22;10522;52.198;9.890;2023-03-04T01:33:31;3.80;99.90
20722;DHT22;10522;52.198;9.890;2023-03-04T01:35:57;3.80;99.90
20722;DHT22;10522;52.198;9.890;2023-03-04T01:38:23;3.80;99.90
20722;DHT22;10522;52.198;9.890;2023-03-04T01:40:49;3.80;99.90
20722;DHT22;10522;52.198;9.890;2023-03-04T01:43:21;3.90;99.90
20722;DHT22;10522;52.198;9.890;2023-03-04T01:45:49;3.80;99.90
20722;DHT22;10522;52.198;9.890;2023-03-04T01:48:18;3.80;99.90
20722;DHT22;10522;52.198;9.890;2023-03-04T01:50:45;3.90;99.90
20722;DHT22;10522;52.198;9.890;2023-03-04T01:53:21;3.90;99.90
20722;DHT22;10522;52.198;9.890;2023-03-04T01:55:47;3.90;99.90
20722;DHT22;10522;52.198;9.890;2023-03-04T01:58:12;3.90;99.90
20722;DHT22;10522;52.198;9.890;2023-03-04T02:00:38;3.90;99.90
20722;DHT22;10522;52.198;9.890;2023-03-04T02:03:15;3.90;99.90
20722;DHT22;10522;52.198;9.890;2023-03-04T02:05:46;3.90;99.90
20722;DHT22;10522;52.198;9.890;2023-03-04T02:08:13;4.00;99.90
20722;DHT22;10522;52.198;9.890;2023-03-04T02:10:41;4.00;99.90
20722;DHT22;10522;52.198;9.890;2023-03-04T02:13:07;4.00;99.90
20722;DHT22;10522;52.198;9.890;2023-03-04T02:15:34;4.00;99.90
20722;DHT22;10522;52.198;9.890;2023-03-04T02:18:00;4.00;99.90
20722;DHT22;10522;52.198;9.890;2023-03-04T02:25:26;4.10;99.90
20722;DHT22;10522;52.198;9.890;2023-03-04T02:27:53;4.10;99.90
20722;DHT22;10522;52.198;9.890;2023-03-04T02:30:20;4.10;99.90
20722;DHT22;10522;52.198;9.890;2023-03-04T02:32:47;4.10;99.90
20722;DHT22;10522;52.198;9.890;2023-03-04T02:35:17;4.10;99.90
20722;DHT22;10522;52.198;9.890;2023-03-04T02:37:43;4.10;99.90
20722;DHT22;10522;52.198;9.890;2023-03-04T02:40:25;4.20;99.90
20722;DHT22;10522;52.198;9.890;2023-03-04T02:42:52;4.20;99.90
20722;DHT22;10522;52.198;9.890;2023-03-04T02:45:36;4.30;99.90
20722;DHT22;10522;52.198;9.890;2023-03-04T02:48:02;4.30;99.90
20722;DHT22;10522;52.198;9.890;2023-03-04T02:50:31;4.20;99.90
20722;DHT22;10522;52.198;9.890;2023-03-04T02:52:58;4.30;99.90
20722;DHT22;10522;52.198;9.890;2023-03-04T02:55:24;4.20;99.90
20722;DHT22;10522;52.198;9.890;2023-03-04T02:57:49;4.20;99.90
20722;DHT22;10522;52.198;9.890;2023-03-04T03:00:15;4.20;99.90
20722;DHT22;10522;52.198;9.890;2023-03-04T03:02:41;4.20;99.90
20722;DHT22;10522;52.198;9.890;2023-03-04T03:05:07;4.30;99.90
20722;DHT22;10522;52.198;9.890;2023-03-04T03:07:33;4.30;99.90
20722;DHT22;10522;52.198;9.890;2023-03-04T03:09:59;4.40;99.90
20722;DHT22;10522;52.198;9.890;2023-03-04T03:12:25;4.30;99.90
20722;DHT22;10522;52.198;9.890;2023-03-04T03:14:51;4.30;99.90
20722;DHT22;10522;52.198;9.890;2023-03-04T03:17:16;4.30;99.90
20722;DHT22;10522;52.198;9.890;2023-03-04T03:19:42;4.30;99.90
20722;DHT22;10522;52.198;9.890;2023-03-04T03:22:08;4.30;99.90
20722;DHT22;10522;52.198;9.890;2023-03-04T03:24:33;4.30;99.90
20722;DHT22;10522;52.198;9.890;2023-03-04T03:26:59;4.40;99.90
20722;DHT22;10522;52.198;9.890;2023-03-04T03:29:24;4.40;99.90
20722;DHT22;10522;52.198;9.890;2023-03-04T03:31:50;4.40;99.90
20722;DHT22;10522;52.198;9.890;2023-03-04T03:34:16;4.40;99.90
20722;DHT22;10522;52.198;9.890;2023-03-04T03:36:41;4.40;99.90
20722;DHT22;10522;52.198;9.890;2023-03-04T03:39:07;4.50;99.90
20722;DHT22;10522;52.198;9.890;2023-03-04T03:41:32;4.40;99.90
20722;DHT22;10522;52.198;9.890;2023-03-04T03:43:58;4.40;99.90
20722;DHT22;10522;52.198;9.890;2023-03-04T03:46:23;4.40;99.90
20722;DHT22;10522;52.198;9.890;2023-03-04T03:48:49;4.40;99.90
20722;DHT22;10522;52.198;9.890;2023-03-04T03:51:15;4.30;99.90
20722;DHT22;10522;52.198;9.890;2023-03-04T03:53:40;4.30;99.90
20722;DHT22;10522;52.198;9.890;2023-03-04T03:56:06;4.30;99.90
20722;DHT22;10522;52.198;9.890;2023-03-04T03:58:32;4.30;99.90
20722;DHT22;10522;52.198;9.890;2023-03-04T04:00:57;4.30;99.90
20722;DHT22;10522;52.198;9.890;2023-03-04T04:03:23;4.30;99.90
20722;DHT22;10522;52.198;9.890;2023-03-04T04:05:48;4.30;99.90
20722;DHT22;10522;52.198;9.890;2023-03-04T04:08:15;4.30;99.90
20722;DHT22;10522;52.198;9.890;2023-03-04T04:10:42;4.30;99.90
20722;DHT22;10522;52.198;9.890;2023-03-04T04:13:08;4.30;99.90
20722;DHT22;10522;52.198;9.890;2023-03-04T04:15:34;4.20;99.90
20722;DHT22;10522;52.198;9.890;2023-03-04T04:18:01;4.20;99.90
20722;DHT22;10522;52.198;9.890;2023-03-04T04:20:27;4.30;99.90
20722;DHT22;10522;52.198;9.890;2023-03-04T04:22:52;4.30;99.90
20722;DHT22;10522;52.198;9.890;2023-03-04T04:25:18;4.30;99.90
20722;DHT22;10522;52.198;9.890;2023-03-04T04:27:43;4.20;99.90
20722;DHT22;10522;52.198;9.890;2023-03-04T04:30:10;4.30;99.90
20722;DHT22;10522;52.198;9.890;2023-03-04T04:32:35;4.20;99.90
20722;DHT22;10522;52.198;9.890;2023-03-04T04:35:01;4.20;99.90
20722;DHT22;10522;52.198;9.890;2023-03-04T04:37:27;4.20;99.90
20722;DHT22;10522;52.198;9.890;2023-03-04T04:39:52;4.20;99.90
20722;DHT22;10522;52.198;9.890;2023-03-04T04:42:20;4.30;99.90
20722;DHT22;10522;52.198;9.890;2023-03-04T04:44:46;4.20;99.90
20722;DHT22;10522;52.198;9.890;2023-03-04T04:47:12;4.10;99.90
20722;DHT22;10522;52.198;9.890;2023-03-04T04:49:37;4.20;99.90
20722;DHT22;10522;52.198;9.890;2023-03-04T04:52:03;4.10;99.90
20722;DHT22;10522;52.198;9.890;2023-03-04T04:54:29;4.10;99.90
20722;DHT22;10522;52.198;9.890;2023-03-04T04:56:54;4.10;99.90
20722;DHT22;10522;52.198;9.890;2023-03-04T04:59:20;4.10;99.90
20722;DHT22;10522;52.198;9.890;2023-03-04T05:01:46;4.10;99.90
20722;DHT22;10522;52.198;9.890;2023-03-04T05:04:12;4.10;99.90
20722;DHT22;10522;52.198;9.890;2023-03-04T05:06:38;4.00;99.90
20722;DHT22;10522;52.198;9.890;2023-03-04T05:09:03;4.20;99.90
20722;DHT22;10522;52.198;9.890;2023-03-04T05:11:29;4.00;99.90
20722;DHT22;10522;52.198;9.890;2023-03-04T05:13:55;4.00;99.90
20722;DHT22;10522;52.198;9.890;2023-03-04T05:16:20;4.00;99.90
20722;DHT22;10522;52.198;9.890;2023-03-04T05:18:46;4.00;99.90
20722;DHT22;10522;52.198;9.890;2023-03-04T05:21:12;4.00;99.90
20722;DHT22;10522;52.198;9.890;2023-03-04T05:23:40;4.00;99.90
20722;DHT22;10522;52.198;9.890;2023-03-04T05:26:08;4.00;99.90
20722;DHT22;10522;52.198;9.890;2023-03-04T05:28:34;4.00;99.90
20722;DHT22;10522;52.198;9.890;2023-03-04T05:31:00;4.00;99.90
20722;DHT22;10522;52.198;9.890;2023-03-04T05:33:27;4.00;99.90
20722;DHT22;10522;52.198;9.890;2023-03-04T05:35:53;4.00;99.90
20722;DHT22;10522;52.198;9.890;2023-03-04T05:38:20;4.00;99.90
20722;DHT22;10522;52.198;9.890;2023-03-04T05:40:47;4.00;99.90
20722;DHT22;10522;52.198;9.890;2023-03-04T05:43:13;4.00;99.90
20722;DHT22;10522;52.198;9.890;2023-03-04T05:45:39;4.00;99.90
20722;DHT22;10522;52.198;9.890;2023-03-04T05:48:07;3.90;99.90
20722;DHT22;10522;52.198;9.890;2023-03-04T05:50:33;3.90;99.90
20722;DHT22;10522;52.198;9.890;2023-03-04T05:52:59;3.90;99.90
20722;DHT22;10522;52.198;9.890;2023-03-04T05:55:25;3.90;99.90
20722;DHT22;10522;52.198;9.890;2023-03-04T05:57:53;4.00;99.90
20722;DHT22;10522;52.198;9.890;2023-03-04T06:00:19;4.00;99.90
20722;DHT22;10522;52.198;9.890;2023-03-04T06:02:44;4.10;99.90
20722;DHT22;10522;52.198;9.890;2023-03-04T06:05:12;4.00;99.90
20722;DHT22;10522;52.198;9.890;2023-03-04T06:07:37;4.00;99.90
20722;DHT22;10522;52.198;9.890;2023-03-04T06:10:04;4.00;99.90
20722;DHT22;10522;52.198;9.890;2023-03-04T06:12:30;4.00;99.90
20722;DHT22;10522;52.198;9.890;2023-03-04T06:14:56;4.00;99.90
20722;DHT22;10522;52.198;9.890;2023-03-04T06:17:21;4.00;99.90
20722;DHT22;10522;52.198;9.890;2023-03-04T06:19:47;3.90;99.90
20722;DHT22;10522;52.198;9.890;2023-03-04T06:22:12;3.90;99.90
20722;DHT22;10522;52.198;9.890;2023-03-04T06:24:38;3.90;99.90
20722;DHT22;10522;52.198;9.890;2023-03-04T06:27:05;3.90;99.90
20722;DHT22;10522;52.198;9.890;2023-03-04T06:29:31;3.90;99.90
20722;DHT22;10522;52.198;9.890;2023-03-04T06:31:57;4.00;99.90
20722;DHT22;10522;52.198;9.890;2023-03-04T06:34:22;3.90;99.90
20722;DHT22;10522;52.198;9.890;2023-03-04T06:36:48;4.10;99.90
20722;DHT22;10522;52.198;9.890;2023-03-04T06:39:14;4.00;99.90
20722;DHT22;10522;52.198;9.890;2023-03-04T06:41:40;4.00;99.90
20722;DHT22;10522;52.198;9.890;2023-03-04T06:44:06;4.10;99.90
20722;DHT22;10522;52.198;9.890;2023-03-04T06:46:35;4.10;99.90
20722;DHT22;10522;52.198;9.890;2023-03-04T06:49:01;4.10;99.90
20722;DHT22;10522;52.198;9.890;2023-03-04T06:51:27;4.20;99.90
20722;DHT22;10522;52.198;9.890;2023-03-04T06:53:52;4.20;99.90
20722;DHT22;10522;52.198;9.890;2023-03-04T06:56:18;4.20;99.90
20722;DHT22;10522;52.198;9.890;2023-03-04T06:58:44;4.20;99.90
20722;DHT22;10522;52.198;9.890;2023-03-04T07:01:12;4.20;99.90
20722;DHT22;10522;52.198;9.890;2023-03-04T07:03:38;4.30;99.90
20722;DHT22;10522;52.198;9.890;2023-03-04T07:06:04;4.30;99.90
20722;DHT22;10522;52.198;9.890;2023-03-04T07:08:30;4.40;99.90
20722;DHT22;10522;52.198;9.890;2023-03-04T07:10:55;4.40;99.90
20722;DHT22;10522;52.198;9.890;2023-03-04T07:13:21;4.40;99.90
20722;DHT22;10522;52.198;9.890;2023-03-04T07:15:46;4.50;99.90
20722;DHT22;10522;52.198;9.890;2023-03-04T07:18:12;4.50;99.90
20722;DHT22;10522;52.198;9.890;2023-03-04T07:20:38;4.50;99.90
20722;DHT22;10522;52.198;9.890;2023-03-04T07:23:03;4.50;99.90
20722;DHT22;10522;52.198;9.890;2023-03-04T07:25:29;4.50;99.90
20722;DHT22;10522;52.198;9.890;2023-03-04T07:27:54;4.60;99.90
20722;DHT22;10522;52.198;9.890;2023-03-04T07:30:20;4.60;99.90
20722;DHT22;10522;52.198;9.890;2023-03-04T07:32:46;4.70;99.90
20722;DHT22;10522;52.198;9.890;2023-03-04T07:35:11;4.70;99.90
20722;DHT22;10522;52.198;9.890;2023-03-04T07:37:37;4.70;99.90
20722;DHT22;10522;52.198;9.890;2023-03-04T07:40:05;4.80;99.90
20722;DHT22;10522;52.198;9.890;2023-03-04T07:42:32;4.80;99.90
20722;DHT22;10522;52.198;9.890;2023-03-04T07:44:58;4.80;99.90
20722;DHT22;10522;52.198;9.890;2023-03-04T07:47:26;4.80;99.90
20722;DHT22;10522;52.198;9.890;2023-03-04T07:49:51;4.70;99.90
20722;DHT22;10522;52.198;9.890;2023-03-04T07:52:17;4.80;99.90
20722;DHT22;10522;52.198;9.890;2023-03-04T07:54:43;4.90;99.90
20722;DHT22;10522;52.198;9.890;2023-03-04T07:57:09;5.00;99.90
20722;DHT22;10522;52.198;9.890;2023-03-04T07:59:35;5.00;99.90
20722;DHT22;10522;52.198;9.890;2023-03-04T08:02:01;5.00;99.90
20722;DHT22;10522;52.198;9.890;2023-03-04T08:04:26;5.10;99.90
20722;DHT22;10522;52.198;9.890;2023-03-04T08:06:52;5.10;99.90
20722;DHT22;10522;52.198;9.890;2023-03-04T08:09:17;5.20;99.90
20722;DHT22;10522;52.198;9.890;2023-03-04T08:11:43;5.10;99.90
20722;DHT22;10522;52.198;9.890;2023-03-04T08:14:11;5.00;99.90
20722;DHT22;10522;52.198;9.890;2023-03-04T08:16:37;5.00;99.90
20722;DHT22;10522;52.198;9.890;2023-03-04T08:19:03;5.00;99.90
20722;DHT22;10522;52.198;9.890;2023-03-04T08:21:29;5.10;99.90
20722;DHT22;10522;52.198;9.890;2023-03-04T08:24:00;5.10;99.90
20722;DHT22;10522;52.198;9.890;2023-03-04T08:26:33;5.20;99.90
20722;DHT22;10522;52.198;9.890;2023-03-04T08:29:00;5.40;99.90
20722;DHT22;10522;52.198;9.890;2023-03-04T08:31:26;5.40;99.90
20722;DHT22;10522;52.198;9.890;2023-03-04T08:33:52;5.50;99.90
20722;DHT22;10522;52.198;9.890;2023-03-04T08:36:18;5.50;99.90
20722;DHT22;10522;52.198;9.890;2023-03-04T08:38:44;5.50;99.90
20722;DHT22;10522;52.198;9.890;2023-03-04T08:41:11;5.30;99.90
20722;DHT22;10522;52.198;9.890;2023-03-04T08:43:36;5.10;99.90
20722;DHT22;10522;52.198;9.890;2023-03-04T08:46:02;5.10;99.90
20722;DHT22;10522;52.198;9.890;2023-03-04T08:48:28;5.00;99.90
20722;DHT22;10522;52.198;9.890;2023-03-04T08:50:54;5.00;99.90
20722;DHT22;10522;52.198;9.890;2023-03-04T08:53:20;5.00;99.90
20722;DHT22;10522;52.198;9.890;2023-03-04T08:55:46;5.10;99.90
20722;DHT22;10522;52.198;9.890;2023-03-04T08:58:12;5.10;99.90
20722;DHT22;10522;52.198;9.890;2023-03-04T09:00:40;5.20;99.90
20722;DHT22;10522;52.198;9.890;2023-03-04T09:03:08;5.40;99.90
20722;DHT22;10522;52.198;9.890;2023-03-04T09:05:34;5.30;99.90
20722;DHT22;10522;52.198;9.890;2023-03-04T09:08:00;5.40;99.90
20722;DHT22;10522;52.198;9.890;2023-03-04T09:10:26;5.30;99.90
20722;DHT22;10522;52.198;9.890;2023-03-04T09:12:52;5.40;99.90
20722;DHT22;10522;52.198;9.890;2023-03-04T09:15:17;5.50;99.90
20722;DHT22;10522;52.198;9.890;2023-03-04T09:17:43;5.50;99.90
20722;DHT22;10522;52.198;9.890;2023-03-04T09:20:10;5.70;99.90
20722;DHT22;10522;52.198;9.890;2023-03-04T09:22:40;5.70;99.90
20722;DHT22;10522;52.198;9.890;2023-03-04T09:25:07;5.70;99.90
20722;DHT22;10522;52.198;9.890;2023-03-04T09:27:33;5.80;99.90
20722;DHT22;10522;52.198;9.890;2023-03-04T09:29:59;5.80;99.90
20722;DHT22;10522;52.198;9.890;2023-03-04T09:32:24;5.80;99.90
20722;DHT22;10522;52.198;9.890;2023-03-04T09:34:50;5.90;99.90
20722;DHT22;10522;52.198;9.890;2023-03-04T09:37:16;5.90;99.90
20722;DHT22;10522;52.198;9.890;2023-03-04T09:39:41;6.00;99.90
20722;DHT22;10522;52.198;9.890;2023-03-04T09:42:15;5.70;99.90
20722;DHT22;10522;52.198;9.890;2023-03-04T09:44:44;5.60;99.90
20722;DHT22;10522;52.198;9.890;2023-03-04T09:47:13;5.40;99.90
20722;DHT22;10522;52.198;9.890;2023-03-04T09:49:44;5.50;99.90
20722;DHT22;10522;52.198;9.890;2023-03-04T09:52:17;5.40;99.90
20722;DHT22;10522;52.198;9.890;2023-03-04T10:00:18;5.50;99.90
20722;DHT22;10522;52.198;9.890;2023-03-04T10:05:17;5.30;99.90
20722;DHT22;10522;52.198;9.890;2023-03-04T10:07:57;5.20;99.90
20722;DHT22;10522;52.198;9.890;2023-03-04T10:10:37;5.40;99.90
20722;DHT22;10522;52.198;9.890;2023-03-04T10:13:05;5.60;99.90
20722;DHT22;10522;52.198;9.890;2023-03-04T10:15:39;5.60;99.90
20722;DHT22;10522;52.198;9.890;2023-03-04T10:18:29;5.80;99.90
20722;DHT22;10522;52.198;9.890;2023-03-04T10:23:30;5.90;99.90
20722;DHT22;10522;52.198;9.890;2023-03-04T10:25:58;5.80;99.90
20722;DHT22;10522;52.198;9.890;2023-03-04T10:28:28;5.80;99.90
20722;DHT22;10522;52.198;9.890;2023-03-04T10:31:01;5.70;99.90
20722;DHT22;10522;52.198;9.890;2023-03-04T10:33:30;5.70;99.90
20722;DHT22;10522;52.198;9.890;2023-03-04T10:36:01;5.50;99.90
20722;DHT22;10522;52.198;9.890;2023-03-04T10:38:30;5.40;99.90
20722;DHT22;10522;52.198;9.890;2023-03-04T10:40:57;5.40;99.90
20722;DHT22;10522;52.198;9.890;2023-03-04T10:43:23;5.50;99.90
20722;DHT22;10522;52.198;9.890;2023-03-04T10:45:54;5.60;99.90
20722;DHT22;10522;52.198;9.890;2023-03-04T10:48:27;5.80;99.90
20722;DHT22;10522;52.198;9.890;2023-03-04T10:50:55;5.70;99.90
20722;DHT22;10522;52.198;9.890;2023-03-04T10:53:41;6.00;99.90
20722;DHT22;10522;52.198;9.890;2023-03-04T10:56:51;6.10;99.90
20722;DHT22;10522;52.198;9.890;2023-03-04T11:02:14;6.30;99.90
20722;DHT22;10522;52.198;9.890;2023-03-04T11:04:40;6.40;99.90
20722;DHT22;10522;52.198;9.890;2023-03-04T11:07:10;6.50;99.90
20722;DHT22;10522;52.198;9.890;2023-03-04T11:09:35;6.60;99.90
20722;DHT22;10522;52.198;9.890;2023-03-04T11:12:05;6.60;99.90
20722;DHT22;10522;52.198;9.890;2023-03-04T11:14:40;6.60;99.90
20722;DHT22;10522;52.198;9.890;2023-03-04T11:17:24;6.50;99.90
20722;DHT22;10522;52.198;9.890;2023-03-04T11:20:01;6.50;99.90
20722;DHT22;10522;52.198;9.890;2023-03-04T11:22:30;6.40;99.90
20722;DHT22;10522;52.198;9.890;2023-03-04T11:25:01;6.40;99.90
20722;DHT22;10522;52.198;9.890;2023-03-04T11:27:43;6.40;99.90
20722;DHT22;10522;52.198;9.890;2023-03-04T11:30:28;6.40;99.90
20722;DHT22;10522;52.198;9.890;2023-03-04T11:35:55;6.40;99.90
20722;DHT22;10522;52.198;9.890;2023-03-04T11:38:38;6.40;99.90
20722;DHT22;10522;52.198;9.890;2023-03-04T11:41:10;6.70;99.90
20722;DHT22;10522;52.198;9.890;2023-03-04T11:43:41;7.30;99.90
20722;DHT22;10522;52.198;9.890;2023-03-04T11:57:08;7.10;99.90
20722;DHT22;10522;52.198;9.890;2023-03-04T11:59:52;6.60;99.90
20722;DHT22;10522;52.198;9.890;2023-03-04T12:02:23;6.40;99.90
20722;DHT22;10522;52.198;9.890;2023-03-04T12:11:07;6.50;99.90
20722;DHT22;10522;52.198;9.890;2023-03-04T12:16:25;6.50;99.90
20722;DHT22;10522;52.198;9.890;2023-03-04T12:30:05;7.30;99.90
20722;DHT22;10522;52.198;9.890;2023-03-04T12:33:06;6.80;99.90
20722;DHT22;10522;52.198;9.890;2023-03-04T12:35:41;6.40;99.90
20722;DHT22;10522;52.198;9.890;2023-03-04T12:44:01;6.10;99.90
20722;DHT22;10522;52.198;9.890;2023-03-04T12:54:57;6.20;99.90
20722;DHT22;10522;52.198;9.890;2023-03-04T12:57:26;6.10;99.90
20722;DHT22;10522;52.198;9.890;2023-03-04T13:10:53;6.40;99.90
20722;DHT22;10522;52.198;9.890;2023-03-04T13:13:42;6.50;99.90
20722;DHT22;10522;52.198;9.890;2023-03-04T13:18:43;6.70;99.90
20722;DHT22;10522;52.198;9.890;2023-03-04T13:23:38;7.10;99.90
20722;DHT22;10522;52.198;9.890;2023-03-04T13:32:04;7.20;99.90
20722;DHT22;10522;52.198;9.890;2023-03-04T13:34:49;6.90;99.90
20722;DHT22;10522;52.198;9.890;2023-03-04T13:37:36;6.70;99.90
20722;DHT22;10522;52.198;9.890;2023-03-04T13:40:35;6.30;99.90
20722;DHT22;10522;52.198;9.890;2023-03-04T13:59:00;6.20;99.90
20722;DHT22;10522;52.198;9.890;2023-03-04T14:01:29;6.20;99.90
20722;DHT22;10522;52.198;9.890;2023-03-04T14:03:57;6.20;99.90
20722;DHT22;10522;52.198;9.890;2023-03-04T14:06:32;6.20;99.90
20722;DHT22;10522;52.198;9.890;2023-03-04T14:08:57;6.20;99.90
20722;DHT22;10522;52.198;9.890;2023-03-04T14:11:35;6.20;99.90
20722;DHT22;10522;52.198;9.890;2023-03-04T14:14:10;6.20;99.90
20722;DHT22;10522;52.198;9.890;2023-03-04T14:17:05;6.20;99.90
20722;DHT22;10522;52.198;9.890;2023-03-04T14:19:44;6.20;99.90
20722;DHT22;10522;52.198;9.890;2023-03-04T14:22:25;6.20;99.90
20722;DHT22;10522;52.198;9.890;2023-03-04T14:25:01;6.20;99.90
20722;DHT22;10522;52.198;9.890;2023-03-04T14:27:31;6.20;99.90
20722;DHT22;10522;52.198;9.890;2023-03-04T14:29:59;6.20;99.90
20722;DHT22;10522;52.198;9.890;2023-03-04T14:32:26;6.20;99.90
20722;DHT22;10522;52.198;9.890;2023-03-04T14:35:03;6.30;99.90
20722;DHT22;10522;52.198;9.890;2023-03-04T14:37:47;6.10;99.90
20722;DHT22;10522;52.198;9.890;2023-03-04T14:40:23;6.00;99.90
20722;DHT22;10522;52.198;9.890;2023-03-04T14:42:56;5.90;99.90
20722;DHT22;10522;52.198;9.890;2023-03-04T14:45:22;5.70;99.90
20722;DHT22;10522;52.198;9.890;2023-03-04T14:47:51;5.60;99.90
20722;DHT22;10522;52.198;9.890;2023-03-04T14:50:19;5.60;99.90
20722;DHT22;10522;52.198;9.890;2023-03-04T14:52:47;5.70;99.90
20722;DHT22;10522;52.198;9.890;2023-03-04T14:55:17;5.70;99.90
20722;DHT22;10522;52.198;9.890;2023-03-04T14:57:46;5.80;99.90
20722;DHT22;10522;52.198;9.890;2023-03-04T15:00:22;5.80;99.90
20722;DHT22;10522;52.198;9.890;2023-03-04T15:02:51;5.70;99.90
20722;DHT22;10522;52.198;9.890;2023-03-04T15:07:51;5.50;99.90
20722;DHT22;10522;52.198;9.890;2023-03-04T15:10:28;5.40;99.90
20722;DHT22;10522;52.198;9.890;2023-03-04T15:12:57;5.40;99.90
20722;DHT22;10522;52.198;9.890;2023-03-04T15:15:45;5.30;99.90
20722;DHT22;10522;52.198;9.890;2023-03-04T15:23:44;5.40;99.90
20722;DHT22;10522;52.198;9.890;2023-03-04T15:26:11;5.40;99.90
20722;DHT22;10522;52.198;9.890;2023-03-04T15:28:38;5.40;99.90
20722;DHT22;10522;52.198;9.890;2023-03-04T15:31:05;5.40;99.90
20722;DHT22;10522;52.198;9.890;2023-03-04T15:33:31;5.30;99.90
20722;DHT22;10522;52.198;9.890;2023-03-04T15:36:01;5.30;99.90
20722;DHT22;10522;52.198;9.890;2023-03-04T15:38:28;5.20;99.90
20722;DHT22;10522;52.198;9.890;2023-03-04T15:40:54;5.30;99.90
20722;DHT22;10522;52.198;9.890;2023-03-04T15:43:23;5.30;99.90
20722;DHT22;10522;52.198;9.890;2023-03-04T15:45:50;5.30;99.90
20722;DHT22;10522;52.198;9.890;2023-03-04T15:48:17;5.20;99.90
20722;DHT22;10522;52.198;9.890;2023-03-04T15:50:59;5.20;99.90
20722;DHT22;10522;52.198;9.890;2023-03-04T15:53:27;5.20;99.90
20722;DHT22;10522;52.198;9.890;2023-03-04T15:55:56;5.10;99.90
20722;DHT22;10522;52.198;9.890;2023-03-04T15:58:22;5.10;99.90
20722;DHT22;10522;52.198;9.890;2023-03-04T16:00:48;5.10;99.90
20722;DHT22;10522;52.198;9.890;2023-03-04T16:03:18;4.80;99.90
20722;DHT22;10522;52.198;9.890;2023-03-04T16:05:47;4.50;99.90
20722;DHT22;10522;52.198;9.890;2023-03-04T16:08:16;4.40;99.90
20722;DHT22;10522;52.198;9.890;2023-03-04T16:10:43;4.30;99.90
20722;DHT22;10522;52.198;9.890;2023-03-04T16:13:27;4.40;99.90
20722;DHT22;10522;52.198;9.890;2023-03-04T16:15:53;4.40;99.90
20722;DHT22;10522;52.198;9.890;2023-03-04T16:18:18;4.40;99.90
20722;DHT22;10522;52.198;9.890;2023-03-04T16:20:46;4.40;99.90
20722;DHT22;10522;52.198;9.890;2023-03-04T16:23:16;4.50;99.90
20722;DHT22;10522;52.198;9.890;2023-03-04T16:25:44;4.40;99.90
20722;DHT22;10522;52.198;9.890;2023-03-04T16:28:11;4.40;99.90
20722;DHT22;10522;52.198;9.890;2023-03-04T16:30:37;4.40;99.90
20722;DHT22;10522;52.198;9.890;2023-03-04T16:33:03;4.40;99.90
20722;DHT22;10522;52.198;9.890;2023-03-04T16:35:28;4.30;99.90
20722;DHT22;10522;52.198;9.890;2023-03-04T16:37:56;4.30;99.90
20722;DHT22;10522;52.198;9.890;2023-03-04T16:40:27;4.40;99.90
20722;DHT22;10522;52.198;9.890;2023-03-04T16:42:53;4.30;99.90
20722;DHT22;10522;52.198;9.890;2023-03-04T16:45:25;4.20;99.90
20722;DHT22;10522;52.198;9.890;2023-03-04T16:47:53;4.20;99.90
20722;DHT22;10522;52.198;9.890;2023-03-04T16:50:21;4.30;99.90
20722;DHT22;10522;52.198;9.890;2023-03-04T16:52:51;4.20;99.90
20722;DHT22;10522;52.198;9.890;2023-03-04T16:55:21;4.20;99.90
20722;DHT22;10522;52.198;9.890;2023-03-04T16:57:47;4.20;99.90
20722;DHT22;10522;52.198;9.890;2023-03-04T17:00:15;4.20;99.90
20722;DHT22;10522;52.198;9.890;2023-03-04T17:02:45;4.20;99.90
20722;DHT22;10522;52.198;9.890;2023-03-04T17:05:17;4.10;99.90
20722;DHT22;10522;52.198;9.890;2023-03-04T17:07:42;4.20;99.90
20722;DHT22;10522;52.198;9.890;2023-03-04T17:10:09;4.20;99.90
20722;DHT22;10522;52.198;9.890;2023-03-04T17:12:35;4.20;99.90
20722;DHT22;10522;52.198;9.890;2023-03-04T17:15:01;4.20;99.90
20722;DHT22;10522;52.198;9.890;2023-03-04T17:17:29;4.20;99.90
20722;DHT22;10522;52.198;9.890;2023-03-04T17:19:55;4.10;99.90
20722;DHT22;10522;52.198;9.890;2023-03-04T17:22:22;4.10;99.90
20722;DHT22;10522;52.198;9.890;2023-03-04T17:24:47;4.20;99.90
20722;DHT22;10522;52.198;9.890;2023-03-04T17:27:13;4.10;99.90
20722;DHT22;10522;52.198;9.890;2023-03-04T17:29:39;4.10;99.90
20722;DHT22;10522;52.198;9.890;2023-03-04T17:32:05;4.10;99.90
20722;DHT22;10522;52.198;9.890;2023-03-04T17:34:31;4.10;99.90
20722;DHT22;10522;52.198;9.890;2023-03-04T17:36:57;4.10;99.90
20722;DHT22;10522;52.198;9.890;2023-03-04T17:39:23;4.10;99.90
20722;DHT22;10522;52.198;9.890;2023-03-04T17:41:51;4.00;99.90
20722;DHT22;10522;52.198;9.890;2023-03-04T17:44:17;4.00;99.90